Latest Weather Observations for Creal Reef

IDQ60801

The Bureau's Brisbane Office is moving locations in November 2018. In the lead up to and during the move, some weather observations or other data on our website may be delayed or temporarily unavailable. Thank you for your patience during this transition.

Issued at 2:02 pm EST Thursday 15 November 2018 (issued every 10 minutes, with the page automatically refreshed every 10 minutes)

About weather observations | Map of weather stations | Latest weather observations for QLD | Other Formats
Station Details ID: 200736 Name: CREAL REEF Lat: -20.53 Lon: 150.38 Height: 1.7 m
Data from the previous 72 hours. | See also: Recent months for locations in Queensland
Date/Time
EST
Temp
°C
App
Temp
°C
Dew
Point
°C
Rel
Hum
%
Delta-T
°C
Wind Press
QNH
hPa
Press
MSL
hPa
Rain since
9am
mm
Dir  Spd
km/h
Gust
km/h
Spd
kts
Gust
kts
15/02:00pm 25.4 - - - - SE 22 28 12 15 1014.3 - -
15/01:30pm 25.2 - - - - SE 13 24 7 13 1014.5 - -
15/01:20pm 24.3 - - - - ESE 17 - 9 - - 1014.6 -
15/01:00pm 25.7 - - - - SSE 17 20 9 11 1014.7 - -
15/12:30pm 25.7 - - - - SE 17 20 9 11 1015.1 - -
15/12:20pm 25.8 - - - - SE 17 - 9 - - 1015.1 -
15/12:00pm 25.7 - - - - SE 17 19 9 10 1015.4 - -
15/11:30am 25.8 - - - - ESE 17 19 9 10 1015.8 - -
15/11:20am 25.6 - - - - ESE 17 - 9 - - 1015.7 -
15/11:00am 25.7 - - - - ESE 17 20 9 11 1016.1 - -
15/10:30am 25.8 - - - - ESE 17 20 9 11 1016.3 - -
15/10:20am 25.9 - - - - ESE 17 - 9 - - 1016.3 -
15/10:00am 25.9 - - - - ESE 17 20 9 11 1016.4 - -
15/09:30am 25.8 - - - - E 20 24 11 13 1016.4 - -
15/09:20am 25.9 - - - - E 22 - 12 - - 1016.3 -
15/09:00am 25.8 - - - - E 19 24 10 13 1016.4 - -
15/08:30am 25.9 - - - - E 20 22 11 12 1016.3 - -
15/08:20am 25.8 - - - - E 20 - 11 - - 1016.2 -
15/08:00am 25.7 - - - - E 20 24 11 13 1016.2 - -
15/07:30am 25.6 - - - - E 22 26 12 14 1016.0 - -
15/07:20am 25.8 - - - - E 20 - 11 - - 1015.8 -
15/07:00am 25.6 - - - - E 19 22 10 12 1015.7 - -
15/06:30am 25.4 - - - - E 20 24 11 13 1015.4 - -
15/06:20am 25.3 - - - - E 22 - 12 - - 1015.1 -
15/06:00am 25.1 - - - - E 24 26 13 14 1015.0 - -
15/05:30am 24.9 - - - - E 28 30 15 16 1014.5 - -
15/05:20am 25.1 - - - - E 28 - 15 - - 1014.3 -
15/05:00am 25.2 - - - - E 30 35 16 19 1014.2 - -
15/04:30am 25.3 - - - - ESE 26 30 14 16 1013.9 - -
15/04:20am 25.1 - - - - ESE 26 - 14 - - 1013.7 -
15/04:00am 25.2 - - - - E 28 33 15 18 1013.4 - -
15/03:30am 25.2 - - - - E 26 32 14 17 1013.2 - -
15/03:20am 25.1 - - - - ESE 28 - 15 - - 1013.1 -
15/03:00am 25.1 - - - - E 26 32 14 17 1013.1 - -
15/02:30am 25.0 - - - - ESE 30 33 16 18 1013.1 - -
15/02:20am 25.1 - - - - ESE 30 - 16 - - 1012.9 -
15/02:00am 25.2 - - - - ESE 30 33 16 18 1013.1 - -
15/01:30am 24.9 - - - - ESE 32 35 17 19 1013.3 - -
15/01:20am 24.9 - - - - ESE 28 - 15 - - 1013.3 -
15/01:00am 24.9 - - - - ESE 30 35 16 19 1013.5 - -
15/12:30am 25.0 - - - - ESE 32 35 17 19 1013.9 - -
15/12:20am 25.0 - - - - ESE 30 - 16 - - 1013.9 -
15/12:00am 24.9 - - - - ESE 32 35 17 19 1014.2 - -
 
Date/Time
EST
Temp
°C
App
Temp
°C
Dew
Point
°C
Rel
Hum
%
Delta-T
°C
Wind Press
QNH
hPa
Press
MSL
hPa
Rain since
9am
mm
Dir  Spd
km/h
Gust
km/h
Spd
kts
Gust
kts
14/11:30pm 25.0 - - - - ESE 30 33 16 18 1014.5 - -
14/11:20pm 24.8 - - - - ESE 28 - 15 - - 1014.6 -
14/11:00pm 25.0 - - - - ESE 32 35 17 19 1014.8 - -
14/10:30pm 25.1 - - - - ESE 32 35 17 19 1015.1 - -
14/10:20pm 25.1 - - - - ESE 30 - 16 - - 1015.1 -
14/10:00pm 25.1 - - - - ESE 30 33 16 18 1015.4 - -
14/09:30pm 25.2 - - - - SE 30 33 16 18 1015.5 - -
14/09:20pm 25.1 - - - - SE 30 - 16 - - 1015.3 -
14/09:00pm 25.3 - - - - SE 30 35 16 19 1015.2 - -
14/08:30pm 25.3 - - - - SE 30 33 16 18 1015.1 - -
14/08:20pm 25.2 - - - - ESE 28 - 15 - - 1014.9 -
14/08:00pm 25.4 - - - - ESE 30 35 16 19 1014.8 - -
14/07:30pm 25.2 - - - - SE 28 33 15 18 1014.9 - -
14/07:20pm 25.2 - - - - SE 28 - 15 - - 1014.7 -
14/07:00pm 25.3 - - - - SE 28 32 15 17 1014.7 - -
14/06:30pm 25.4 - - - - SE 28 32 15 17 1014.5 - -
14/06:20pm 25.3 - - - - SE 28 - 15 - - 1014.3 -
14/06:00pm 25.4 - - - - SE 26 32 14 17 1014.3 - -
14/05:30pm 25.4 - - - - SSE 26 32 14 17 1013.9 - -
14/05:20pm 25.4 - - - - SSE 24 - 13 - - 1013.8 -
14/05:00pm 25.5 - - - - SE 24 28 13 15 1013.8 - -
14/04:30pm 25.6 - - - - SE 20 24 11 13 1013.6 - -
14/04:20pm 25.6 - - - - SE 20 - 11 - - 1013.3 -
14/04:00pm 25.5 - - - - SE 20 24 11 13 1013.4 - -
14/03:30pm 25.5 - - - - SE 22 26 12 14 1013.1 - -
14/03:20pm 25.6 - - - - SE 22 - 12 - - 1013.0 -
14/03:00pm 25.5 - - - - SE 20 24 11 13 1013.2 - -
14/02:30pm 25.7 - - - - SE 19 22 10 12 1013.3 - -
14/02:20pm 25.8 - - - - ESE 20 - 11 - - 1013.2 -
14/02:00pm 25.5 - - - - SE 19 22 10 12 1013.5 - -
14/01:30pm 25.5 - - - - ESE 19 22 10 12 1013.8 - -
14/01:20pm 25.6 - - - - ESE 17 - 9 - - 1013.8 -
14/01:00pm 25.5 - - - - ESE 19 20 10 11 1014.0 - -
14/12:30pm 25.6 - - - - ESE 20 24 11 13 1014.3 - -
14/12:20pm 25.5 - - - - E 22 - 12 - - 1014.1 -
14/12:00pm 25.5 - - - - E 22 26 12 14 1014.5 - -
14/11:30am 25.6 - - - - ESE 20 24 11 13 1014.7 - -
14/11:20am 25.5 - - - - ESE 22 - 12 - - 1014.8 -
14/11:00am 25.6 - - - - ESE 22 24 12 13 1015.1 - -
14/10:30am 25.5 - - - - ESE 24 28 13 15 1015.2 - -
14/10:20am 25.7 - - - - ESE 22 - 12 - - 1015.2 -
14/10:00am 25.5 - - - - ESE 24 30 13 16 1015.2 - -
14/09:30am 25.3 - - - - ESE 26 30 14 16 1015.2 - -
14/09:20am 25.4 - - - - ESE 24 - 13 - - 1015.2 -
14/09:00am 25.3 - - - - ESE 22 26 12 14 1015.5 - -
14/08:30am 25.4 - - - - ESE 24 28 13 15 1015.6 - -
14/08:20am 25.5 - - - - ESE 24 - 13 - - 1015.4 -
14/08:00am 25.3 - - - - SE 24 28 13 15 1015.4 - -
14/07:30am 25.3 - - - - SE 24 28 13 15 1015.2 - -
14/07:20am 25.3 - - - - SE 28 - 15 - - 1015.0 -
14/07:00am 25.0 - - - - SE 26 33 14 18 1015.0 - -
14/06:30am 25.1 - - - - ESE 26 30 14 16 1014.6 - -
14/06:20am 25.1 - - - - ESE 28 - 15 - - 1014.4 -
14/06:00am 25.0 - - - - ESE 30 35 16 19 1014.1 - -
14/05:30am 24.9 - - - - ESE 30 33 16 18 1013.7 - -
14/05:20am 24.8 - - - - ESE 30 - 16 - - 1013.6 -
14/05:00am 24.8 - - - - ESE 32 35 17 19 1013.2 - -
14/04:30am 24.8 - - - - ESE 32 35 17 19 1013.0 - -
14/04:20am 24.9 - - - - ESE 32 - 17 - - 1012.7 -
14/04:00am 24.8 - - - - ESE 30 35 16 19 1012.7 - -
14/03:30am 24.9 - - - - SE 30 35 16 19 1012.6 - -
14/03:20am 24.8 - - - - SE 32 - 17 - - 1012.5 -
14/03:00am 25.0 - - - - ESE 32 35 17 19 1012.6 - -
14/02:30am 24.9 - - - - SE 30 33 16 18 1012.5 - -
14/02:20am 24.9 - - - - ESE 30 - 16 - - 1012.3 -
14/02:00am 24.8 - - - - SE 32 35 17 19 1012.3 - -
14/01:30am 24.8 - - - - SE 32 37 17 20 1012.5 - -
14/01:20am 24.9 - - - - SE 33 - 18 - - 1012.5 -
14/01:00am 25.0 - - - - SE 32 35 17 19 1012.8 - -
14/12:30am 24.9 - - - - SE 33 37 18 20 1013.0 - -
14/12:20am 25.0 - - - - SE 32 - 17 - - 1013.1 -
14/12:00am 24.9 - - - - SE 33 37 18 20 1013.4 - -
 
Date/Time
EST
Temp
°C
App
Temp
°C
Dew
Point
°C
Rel
Hum
%
Delta-T
°C
Wind Press
QNH
hPa
Press
MSL
hPa
Rain since
9am
mm
Dir  Spd
km/h
Gust
km/h
Spd
kts
Gust
kts
13/11:30pm 25.0 - - - - SE 32 35 17 19 1013.7 - -
13/11:20pm 25.0 - - - - SE 32 - 17 - - 1013.7 -
13/11:00pm 25.0 - - - - SE 33 35 18 19 1013.9 - -
13/10:30pm 25.0 - - - - SE 33 39 18 21 1014.0 - -
13/10:20pm 25.2 - - - - SE 33 - 18 - - 1014.0 -
13/10:00pm 25.0 - - - - SE 33 39 18 21 1014.1 - -
13/09:30pm 25.1 - - - - SE 33 39 18 21 1014.2 - -
13/09:20pm 25.0 - - - - SE 33 - 18 - - 1014.1 -
13/09:00pm 25.0 - - - - SE 33 39 18 21 1014.1 - -
13/08:30pm 25.0 - - - - SE 33 37 18 20 1013.9 - -
13/08:20pm 25.0 - - - - SE 33 - 18 - - 1013.7 -
13/08:00pm 25.2 - - - - SE 35 39 19 21 1013.6 - -
13/07:30pm 25.3 - - - - SE 33 37 18 20 1013.4 - -
13/07:20pm 25.3 - - - - SE 33 - 18 - - 1013.2 -
13/07:00pm 25.1 - - - - SE 35 39 19 21 1013.1 - -
13/06:30pm 25.0 - - - - SE 33 39 18 21 1012.8 - -
13/06:20pm 25.0 - - - - SE 35 - 19 - - 1012.5 -
13/06:00pm 25.1 - - - - SE 35 41 19 22 1012.4 - -
13/05:30pm 24.9 - - - - SE 35 41 19 22 1012.0 - -
13/05:20pm 25.0 - - - - SE 35 - 19 - - 1011.9 -
13/05:00pm 25.1 - - - - SE 37 41 20 22 1011.7 - -
13/04:30pm 25.1 - - - - SE 35 43 19 23 1011.8 - -
13/04:20pm 25.0 - - - - SE 35 - 19 - - 1011.8 -
13/04:00pm 25.0 - - - - SE 35 41 19 22 1011.9 - -
13/03:30pm 25.0 - - - - SE 33 39 18 21 1012.0 - -
13/03:20pm 25.1 - - - - SE 33 - 18 - - 1012.0 -
13/03:00pm 25.2 - - - - SE 35 37 19 20 1012.0 - -
13/02:30pm 25.0 - - - - SE 32 37 17 20 1012.3 - -
13/02:20pm 25.3 - - - - SE 33 - 18 - - 1012.4 -
13/02:00pm 25.2 - - - - SE 30 35 16 19 1012.7 - -
13/01:30pm 25.2 - - - - SE 32 37 17 20 1012.9 - -
13/01:20pm 25.0 - - - - SE 33 - 18 - - 1012.9 -
13/01:00pm 25.1 - - - - SE 32 37 17 20 1013.3 - -
13/12:30pm 24.9 - - - - SSE 33 37 18 20 1013.7 - -
13/12:20pm 24.7 - - - - SSE 33 - 18 - - 1013.7 -
13/12:00pm 24.9 - - - - SE 32 35 17 19 1014.0 - -
13/11:30am 25.0 - - - - SE 33 39 18 21 1014.2 - -
13/11:20am 25.0 - - - - SE 35 - 19 - - 1014.3 -
13/11:00am 25.1 - - - - SE 33 39 18 21 1014.6 - -
13/10:30am 25.2 - - - - SE 35 39 19 21 1014.8 - -
13/10:20am 25.1 - - - - SSE 32 - 17 - - 1014.7 -
13/10:00am 25.1 - - - - SSE 33 39 18 21 1014.9 - -
13/09:30am 25.0 - - - - SSE 33 39 18 21 1015.1 - -
13/09:20am 25.2 - - - - SSE 32 - 17 - - 1015.0 -
13/09:00am 25.1 - - - - SSE 33 41 18 22 1015.1 - -
13/08:30am 24.9 - - - - SSE 33 39 18 21 1015.0 - -
13/08:20am 25.1 - - - - SE 32 - 17 - - 1014.9 -
13/08:00am 24.6 - - - - SE 22 26 12 14 1015.1 - -
13/07:30am 24.8 - - - - SE 41 46 22 25 1014.6 - -
13/07:20am 24.1 - - - - SSE 39 - 21 - - 1014.5 -
13/07:15am 24.2 - - - - SE 37 56 20 30 1014.6 - -
13/07:00am 24.4 - - - - SSE 32 44 17 24 1014.6 - -
13/06:30am 24.9 - - - - SE 33 39 18 21 1014.4 - -
13/06:20am 24.7 - - - - SSE 35 - 19 - - 1014.1 -
13/06:00am 24.7 - - - - SE 35 39 19 21 1014.1 - -
13/05:30am 24.8 - - - - SE 32 41 17 22 1013.7 - -
13/05:20am 24.4 - - - - SE 30 - 16 - - 1013.6 -
13/05:00am 24.7 - - - - SE 30 35 16 19 1013.8 - -
13/04:30am 24.6 - - - - SE 30 35 16 19 1013.6 - -
13/04:20am 24.7 - - - - SE 33 - 18 - - 1013.3 -
13/04:00am 24.8 - - - - SE 33 39 18 21 1013.2 - -
13/03:30am 24.7 - - - - SE 33 39 18 21 1013.2 - -
13/03:20am 24.7 - - - - SE 32 - 17 - - 1013.1 -
13/03:00am 24.6 - - - - SE 35 41 19 22 1013.1 - -
13/02:30am 24.7 - - - - SE 33 41 18 22 1013.0 - -
13/02:20am 24.6 - - - - SE 35 - 19 - - 1012.9 -
13/02:00am 24.7 - - - - SE 33 39 18 21 1013.3 - -
13/01:30am 24.6 - - - - SE 30 35 16 19 1013.6 - -
13/01:20am 24.5 - - - - SE 30 - 16 - - 1013.6 -
13/01:00am 24.6 - - - - SE 32 35 17 19 1013.9 - -
13/12:30am 24.7 - - - - SE 33 37 18 20 1014.2 - -
13/12:20am 24.7 - - - - SE 33 - 18 - - 1014.4 -
13/12:00am 24.8 - - - - SE 37 41 20 22 1014.5 - -
 
Date/Time
EST
Temp
°C
App
Temp
°C
Dew
Point
°C
Rel
Hum
%
Delta-T
°C
Wind Press
QNH
hPa
Press
MSL
hPa
Rain since
9am
mm
Dir  Spd
km/h
Gust
km/h
Spd
kts
Gust
kts
12/11:30pm 24.7 - - - - SE 35 44 19 24 1014.9 - -
12/11:20pm 24.7 - - - - SE 35 - 19 - - 1015.0 -
12/11:00pm 24.9 - - - - SE 33 39 18 21 1015.3 - -
12/10:30pm 24.9 - - - - SE 32 35 17 19 1015.6 - -
12/10:20pm 24.8 - - - - SE 33 - 18 - - 1015.5 -
12/10:00pm 24.8 - - - - ESE 35 41 19 22 1015.6 - -
12/09:30pm 24.9 - - - - SE 35 43 19 23 1015.5 - -
12/09:20pm 24.8 - - - - ESE 35 - 19 - - 1015.3 -
12/09:00pm 24.8 - - - - SE 35 39 19 21 1015.3 - -
12/08:30pm 24.8 - - - - SE 33 39 18 21 1015.1 - -
12/08:20pm 24.8 - - - - SE 35 - 19 - - 1014.9 -
12/08:00pm 24.8 - - - - SE 33 39 18 21 1015.0 - -
12/07:30pm 24.7 - - - - SE 33 37 18 20 1015.0 - -
12/07:20pm 24.8 - - - - SE 33 - 18 - - 1014.8 -
12/07:00pm 24.8 - - - - SE 33 39 18 21 1014.8 - -
12/06:30pm 24.8 - - - - SSE 35 39 19 21 1014.6 - -
12/06:20pm 24.8 - - - - SSE 33 - 18 - - 1014.3 -
12/06:00pm 24.7 - - - - SE 33 39 18 21 1014.3 - -
12/05:30pm 24.9 - - - - SE 35 41 19 22 1014.0 - -
12/05:20pm 24.9 - - - - SE 33 - 18 - - 1013.8 -
12/05:00pm 24.9 - - - - SSE 35 41 19 22 1013.8 - -
12/04:30pm 24.8 - - - - SE 35 41 19 22 1013.4 - -
12/04:20pm 24.9 - - - - SE 35 - 19 - - 1013.3 -
12/04:00pm 24.9 - - - - SE 35 41 19 22 1013.3 - -
12/03:30pm 24.8 - - - - SE 35 41 19 22 1013.4 - -
12/03:20pm 24.8 - - - - SE 35 - 19 - - 1013.3 -
12/03:00pm 24.9 - - - - SSE 35 44 19 24 1013.5 - -
12/02:30pm 25.0 - - - - SE 37 44 20 24 1013.7 - -
12/02:20pm 25.0 - - - - SE 35 - 19 - - 1013.7 -

Other Formats:

Comma delimited format used in spreadsheet applications
http://www.bom.gov.au/fwo/IDQ60801/IDQ60801.94371.axf

JavaScript Object Notation format (JSON) in row-major order
http://www.bom.gov.au/fwo/IDQ60801/IDQ60801.94371.json